sensor_id;sensor_type;location;lat;lon;timestamp;P1;durP1;ratioP1;P2;durP2;ratioP2
23072;SDS011;67971;51.046;3.732;2023-03-04T00:01:44;18.03;;;4.63;;
23072;SDS011;67971;51.046;3.732;2023-03-04T00:04:10;20.67;;;5.37;;
23072;SDS011;67971;51.046;3.732;2023-03-04T00:06:35;25.67;;;4.80;;
23072;SDS011;67971;51.046;3.732;2023-03-04T00:09:01;20.57;;;5.17;;
23072;SDS011;67971;51.046;3.732;2023-03-04T00:11:28;19.57;;;5.50;;
23072;SDS011;67971;51.046;3.732;2023-03-04T00:13:55;15.23;;;5.73;;
23072;SDS011;67971;51.046;3.732;2023-03-04T00:16:21;17.87;;;6.20;;
23072;SDS011;67971;51.046;3.732;2023-03-04T00:18:46;20.83;;;6.07;;
23072;SDS011;67971;51.046;3.732;2023-03-04T00:21:12;20.70;;;5.60;;
23072;SDS011;67971;51.046;3.732;2023-03-04T00:23:38;22.17;;;6.07;;
23072;SDS011;67971;51.046;3.732;2023-03-04T00:26:05;22.53;;;5.57;;
23072;SDS011;67971;51.046;3.732;2023-03-04T00:28:33;21.13;;;5.83;;
23072;SDS011;67971;51.046;3.732;2023-03-04T00:30:59;24.43;;;6.17;;
23072;SDS011;67971;51.046;3.732;2023-03-04T00:33:24;25.13;;;5.13;;
23072;SDS011;67971;51.046;3.732;2023-03-04T00:35:50;17.50;;;4.50;;
23072;SDS011;67971;51.046;3.732;2023-03-04T00:38:16;26.57;;;5.40;;
23072;SDS011;67971;51.046;3.732;2023-03-04T00:40:41;17.70;;;4.83;;
23072;SDS011;67971;51.046;3.732;2023-03-04T00:43:07;26.53;;;5.80;;
23072;SDS011;67971;51.046;3.732;2023-03-04T00:45:33;19.27;;;4.70;;
23072;SDS011;67971;51.046;3.732;2023-03-04T00:47:58;27.40;;;5.33;;
23072;SDS011;67971;51.046;3.732;2023-03-04T00:50:24;22.53;;;4.07;;
23072;SDS011;67971;51.046;3.732;2023-03-04T00:52:50;24.47;;;4.87;;
23072;SDS011;67971;51.046;3.732;2023-03-04T00:55:15;21.93;;;4.23;;
23072;SDS011;67971;51.046;3.732;2023-03-04T00:57:41;26.10;;;5.30;;
23072;SDS011;67971;51.046;3.732;2023-03-04T01:00:07;27.80;;;5.03;;
23072;SDS011;67971;51.046;3.732;2023-03-04T01:02:33;14.67;;;5.23;;
23072;SDS011;67971;51.046;3.732;2023-03-04T01:04:59;17.43;;;4.87;;
23072;SDS011;67971;51.046;3.732;2023-03-04T01:07:24;19.03;;;5.30;;
23072;SDS011;67971;51.046;3.732;2023-03-04T01:09:50;28.07;;;4.93;;
23072;SDS011;67971;51.046;3.732;2023-03-04T01:12:16;21.13;;;4.37;;
23072;SDS011;67971;51.046;3.732;2023-03-04T01:14:41;33.20;;;5.40;;
23072;SDS011;67971;51.046;3.732;2023-03-04T01:17:07;27.40;;;5.80;;
23072;SDS011;67971;51.046;3.732;2023-03-04T01:19:32;22.67;;;5.03;;
23072;SDS011;67971;51.046;3.732;2023-03-04T01:21:58;21.53;;;5.47;;
23072;SDS011;67971;51.046;3.732;2023-03-04T01:24:24;20.07;;;4.93;;
23072;SDS011;67971;51.046;3.732;2023-03-04T01:26:50;21.40;;;5.47;;
23072;SDS011;67971;51.046;3.732;2023-03-04T01:29:15;20.83;;;5.30;;
23072;SDS011;67971;51.046;3.732;2023-03-04T01:31:41;19.87;;;5.03;;
23072;SDS011;67971;51.046;3.732;2023-03-04T01:34:07;20.17;;;5.47;;
23072;SDS011;67971;51.046;3.732;2023-03-04T01:36:34;17.57;;;3.93;;
23072;SDS011;67971;51.046;3.732;2023-03-04T01:38:59;27.43;;;5.00;;
23072;SDS011;67971;51.046;3.732;2023-03-04T01:41:25;23.53;;;5.47;;
23072;SDS011;67971;51.046;3.732;2023-03-04T01:43:52;24.30;;;5.20;;
23072;SDS011;67971;51.046;3.732;2023-03-04T01:46:20;23.63;;;4.60;;
23072;SDS011;67971;51.046;3.732;2023-03-04T01:48:46;28.40;;;5.33;;
23072;SDS011;67971;51.046;3.732;2023-03-04T01:51:13;20.30;;;5.23;;
23072;SDS011;67971;51.046;3.732;2023-03-04T01:53:40;17.33;;;4.30;;
23072;SDS011;67971;51.046;3.732;2023-03-04T01:58:40;30.77;;;5.20;;
23072;SDS011;67971;51.046;3.732;2023-03-04T02:01:06;25.23;;;4.50;;
23072;SDS011;67971;51.046;3.732;2023-03-04T02:03:33;22.90;;;4.67;;
23072;SDS011;67971;51.046;3.732;2023-03-04T02:05:58;27.20;;;5.07;;
23072;SDS011;67971;51.046;3.732;2023-03-04T02:08:24;22.47;;;4.93;;
23072;SDS011;67971;51.046;3.732;2023-03-04T02:10:50;20.43;;;4.40;;
23072;SDS011;67971;51.046;3.732;2023-03-04T02:13:16;22.90;;;4.50;;
23072;SDS011;67971;51.046;3.732;2023-03-04T02:15:43;18.20;;;4.67;;
23072;SDS011;67971;51.046;3.732;2023-03-04T02:18:19;21.00;;;4.77;;
23072;SDS011;67971;51.046;3.732;2023-03-04T02:26:20;22.80;;;4.10;;
23072;SDS011;67971;51.046;3.732;2023-03-04T02:28:53;25.00;;;5.43;;
23072;SDS011;67971;51.046;3.732;2023-03-04T02:31:29;16.80;;;3.80;;
23072;SDS011;67971;51.046;3.732;2023-03-04T02:34:01;23.10;;;3.90;;
23072;SDS011;67971;51.046;3.732;2023-03-04T02:36:29;15.90;;;3.40;;
23072;SDS011;67971;51.046;3.732;2023-03-04T02:39:00;22.97;;;4.90;;
23072;SDS011;67971;51.046;3.732;2023-03-04T02:41:36;15.30;;;4.30;;
23072;SDS011;67971;51.046;3.732;2023-03-04T02:44:02;19.47;;;3.73;;
23072;SDS011;67971;51.046;3.732;2023-03-04T02:46:39;18.37;;;3.47;;
23072;SDS011;67971;51.046;3.732;2023-03-04T02:49:04;29.33;;;4.37;;
23072;SDS011;67971;51.046;3.732;2023-03-04T02:51:30;23.70;;;4.43;;
23072;SDS011;67971;51.046;3.732;2023-03-04T02:53:55;27.33;;;4.80;;
23072;SDS011;67971;51.046;3.732;2023-03-04T02:56:21;22.60;;;4.67;;
23072;SDS011;67971;51.046;3.732;2023-03-04T02:58:47;20.90;;;4.10;;
23072;SDS011;67971;51.046;3.732;2023-03-04T03:01:12;17.97;;;3.97;;
23072;SDS011;67971;51.046;3.732;2023-03-04T03:03:38;17.93;;;3.60;;
23072;SDS011;67971;51.046;3.732;2023-03-04T03:06:03;14.43;;;4.33;;
23072;SDS011;67971;51.046;3.732;2023-03-04T03:08:29;29.00;;;4.87;;
23072;SDS011;67971;51.046;3.732;2023-03-04T03:10:55;16.63;;;5.13;;
23072;SDS011;67971;51.046;3.732;2023-03-04T03:13:21;23.50;;;4.40;;
23072;SDS011;67971;51.046;3.732;2023-03-04T03:15:46;19.93;;;5.07;;
23072;SDS011;67971;51.046;3.732;2023-03-04T03:18:12;16.93;;;4.83;;
23072;SDS011;67971;51.046;3.732;2023-03-04T03:20:38;15.50;;;3.43;;
23072;SDS011;67971;51.046;3.732;2023-03-04T03:23:03;17.60;;;3.70;;
23072;SDS011;67971;51.046;3.732;2023-03-04T03:25:29;18.73;;;3.57;;
23072;SDS011;67971;51.046;3.732;2023-03-04T03:27:55;16.47;;;3.40;;
23072;SDS011;67971;51.046;3.732;2023-03-04T03:30:21;17.87;;;3.10;;
23072;SDS011;67971;51.046;3.732;2023-03-04T03:32:46;15.30;;;3.03;;
23072;SDS011;67971;51.046;3.732;2023-03-04T03:35:12;16.83;;;3.20;;
23072;SDS011;67971;51.046;3.732;2023-03-04T03:37:37;20.93;;;3.00;;
23072;SDS011;67971;51.046;3.732;2023-03-04T03:40:03;17.60;;;2.93;;
23072;SDS011;67971;51.046;3.732;2023-03-04T03:42:30;18.57;;;2.80;;
23072;SDS011;67971;51.046;3.732;2023-03-04T03:44:55;25.90;;;2.93;;
23072;SDS011;67971;51.046;3.732;2023-03-04T03:47:21;15.57;;;2.60;;
23072;SDS011;67971;51.046;3.732;2023-03-04T03:49:47;16.93;;;2.67;;
23072;SDS011;67971;51.046;3.732;2023-03-04T03:52:13;16.73;;;3.07;;
23072;SDS011;67971;51.046;3.732;2023-03-04T03:54:38;10.83;;;2.40;;
23072;SDS011;67971;51.046;3.732;2023-03-04T03:57:04;16.73;;;2.77;;
23072;SDS011;67971;51.046;3.732;2023-03-04T03:59:30;15.87;;;2.93;;
23072;SDS011;67971;51.046;3.732;2023-03-04T04:01:56;14.03;;;3.57;;
23072;SDS011;67971;51.046;3.732;2023-03-04T04:04:21;15.73;;;2.87;;
23072;SDS011;67971;51.046;3.732;2023-03-04T04:06:47;14.20;;;3.00;;
23072;SDS011;67971;51.046;3.732;2023-03-04T04:09:13;17.80;;;3.00;;
23072;SDS011;67971;51.046;3.732;2023-03-04T04:11:38;21.10;;;3.03;;
23072;SDS011;67971;51.046;3.732;2023-03-04T04:14:04;13.73;;;2.70;;
23072;SDS011;67971;51.046;3.732;2023-03-04T04:16:30;12.27;;;2.90;;
23072;SDS011;67971;51.046;3.732;2023-03-04T04:18:55;13.23;;;2.47;;
23072;SDS011;67971;51.046;3.732;2023-03-04T04:21:21;8.97;;;2.83;;
23072;SDS011;67971;51.046;3.732;2023-03-04T04:23:47;16.47;;;3.00;;
23072;SDS011;67971;51.046;3.732;2023-03-04T04:26:12;20.07;;;3.47;;
23072;SDS011;67971;51.046;3.732;2023-03-04T04:28:38;12.90;;;2.27;;
23072;SDS011;67971;51.046;3.732;2023-03-04T04:31:07;27.60;;;3.60;;
23072;SDS011;67971;51.046;3.732;2023-03-04T04:33:34;26.53;;;3.23;;
23072;SDS011;67971;51.046;3.732;2023-03-04T04:36:00;14.43;;;3.07;;
23072;SDS011;67971;51.046;3.732;2023-03-04T04:38:26;11.40;;;3.13;;
23072;SDS011;67971;51.046;3.732;2023-03-04T04:40:51;19.93;;;3.60;;
23072;SDS011;67971;51.046;3.732;2023-03-04T04:43:17;11.60;;;2.73;;
23072;SDS011;67971;51.046;3.732;2023-03-04T04:45:43;17.80;;;3.23;;
23072;SDS011;67971;51.046;3.732;2023-03-04T04:48:08;13.50;;;3.20;;
23072;SDS011;67971;51.046;3.732;2023-03-04T04:50:34;20.40;;;4.03;;
23072;SDS011;67971;51.046;3.732;2023-03-04T04:53:00;18.27;;;4.03;;
23072;SDS011;67971;51.046;3.732;2023-03-04T04:55:25;19.70;;;3.17;;
23072;SDS011;67971;51.046;3.732;2023-03-04T04:57:52;16.03;;;2.73;;
23072;SDS011;67971;51.046;3.732;2023-03-04T05:00:17;21.93;;;2.83;;
23072;SDS011;67971;51.046;3.732;2023-03-04T05:02:43;19.97;;;2.63;;
23072;SDS011;67971;51.046;3.732;2023-03-04T05:05:09;12.50;;;2.80;;
23072;SDS011;67971;51.046;3.732;2023-03-04T05:07:35;20.03;;;2.27;;
23072;SDS011;67971;51.046;3.732;2023-03-04T05:10:01;15.40;;;2.87;;
23072;SDS011;67971;51.046;3.732;2023-03-04T05:12:27;15.03;;;2.47;;
23072;SDS011;67971;51.046;3.732;2023-03-04T05:14:53;12.53;;;3.10;;
23072;SDS011;67971;51.046;3.732;2023-03-04T05:17:19;15.40;;;2.97;;
23072;SDS011;67971;51.046;3.732;2023-03-04T05:19:44;27.70;;;3.90;;
23072;SDS011;67971;51.046;3.732;2023-03-04T05:22:10;17.17;;;2.77;;
23072;SDS011;67971;51.046;3.732;2023-03-04T05:24:36;16.33;;;3.07;;
23072;SDS011;67971;51.046;3.732;2023-03-04T05:27:01;14.60;;;3.37;;
23072;SDS011;67971;51.046;3.732;2023-03-04T05:29:27;22.47;;;3.63;;
23072;SDS011;67971;51.046;3.732;2023-03-04T05:31:53;19.17;;;3.17;;
23072;SDS011;67971;51.046;3.732;2023-03-04T05:34:18;26.73;;;3.43;;
23072;SDS011;67971;51.046;3.732;2023-03-04T05:36:44;19.73;;;4.10;;
23072;SDS011;67971;51.046;3.732;2023-03-04T05:39:10;21.80;;;2.97;;
23072;SDS011;67971;51.046;3.732;2023-03-04T05:41:36;16.70;;;3.30;;
23072;SDS011;67971;51.046;3.732;2023-03-04T05:44:01;9.73;;;2.70;;
23072;SDS011;67971;51.046;3.732;2023-03-04T05:46:27;16.43;;;2.57;;
23072;SDS011;67971;51.046;3.732;2023-03-04T05:48:53;16.47;;;2.93;;
23072;SDS011;67971;51.046;3.732;2023-03-04T05:51:19;15.30;;;3.70;;
23072;SDS011;67971;51.046;3.732;2023-03-04T05:53:45;15.27;;;2.93;;
23072;SDS011;67971;51.046;3.732;2023-03-04T05:56:12;18.07;;;3.53;;
23072;SDS011;67971;51.046;3.732;2023-03-04T05:58:39;16.07;;;2.97;;
23072;SDS011;67971;51.046;3.732;2023-03-04T06:01:05;14.70;;;2.90;;
23072;SDS011;67971;51.046;3.732;2023-03-04T06:03:31;14.77;;;2.40;;
23072;SDS011;67971;51.046;3.732;2023-03-04T06:05:57;14.70;;;2.47;;
23072;SDS011;67971;51.046;3.732;2023-03-04T06:08:23;19.67;;;2.50;;
23072;SDS011;67971;51.046;3.732;2023-03-04T06:10:54;14.70;;;2.20;;
23072;SDS011;67971;51.046;3.732;2023-03-04T06:13:21;12.10;;;2.07;;
23072;SDS011;67971;51.046;3.732;2023-03-04T06:15:52;8.60;;;2.20;;
23072;SDS011;67971;51.046;3.732;2023-03-04T06:18:19;14.13;;;1.87;;
23072;SDS011;67971;51.046;3.732;2023-03-04T06:20:45;9.23;;;1.90;;
23072;SDS011;67971;51.046;3.732;2023-03-04T06:23:11;10.53;;;1.80;;
23072;SDS011;67971;51.046;3.732;2023-03-04T06:25:37;13.27;;;2.13;;
23072;SDS011;67971;51.046;3.732;2023-03-04T06:28:02;17.13;;;2.83;;
23072;SDS011;67971;51.046;3.732;2023-03-04T06:30:28;9.07;;;2.87;;
23072;SDS011;67971;51.046;3.732;2023-03-04T06:32:54;12.33;;;2.63;;
23072;SDS011;67971;51.046;3.732;2023-03-04T06:35:19;22.40;;;3.03;;
23072;SDS011;67971;51.046;3.732;2023-03-04T06:37:45;13.37;;;2.37;;
23072;SDS011;67971;51.046;3.732;2023-03-04T06:40:11;15.13;;;2.27;;
23072;SDS011;67971;51.046;3.732;2023-03-04T06:42:37;14.83;;;2.07;;
23072;SDS011;67971;51.046;3.732;2023-03-04T06:45:04;11.13;;;2.37;;
23072;SDS011;67971;51.046;3.732;2023-03-04T06:47:30;13.20;;;2.63;;
23072;SDS011;67971;51.046;3.732;2023-03-04T06:49:56;14.13;;;2.30;;
23072;SDS011;67971;51.046;3.732;2023-03-04T06:52:22;12.47;;;1.90;;
23072;SDS011;67971;51.046;3.732;2023-03-04T06:54:48;20.10;;;2.23;;
23072;SDS011;67971;51.046;3.732;2023-03-04T06:57:15;18.73;;;3.00;;
23072;SDS011;67971;51.046;3.732;2023-03-04T06:59:40;13.27;;;2.33;;
23072;SDS011;67971;51.046;3.732;2023-03-04T07:02:08;12.30;;;2.63;;
23072;SDS011;67971;51.046;3.732;2023-03-04T07:04:36;14.07;;;2.37;;
23072;SDS011;67971;51.046;3.732;2023-03-04T07:07:02;13.90;;;2.10;;
23072;SDS011;67971;51.046;3.732;2023-03-04T07:09:28;21.27;;;2.70;;
23072;SDS011;67971;51.046;3.732;2023-03-04T07:11:54;26.63;;;3.27;;
23072;SDS011;67971;51.046;3.732;2023-03-04T07:14:19;15.83;;;3.10;;
23072;SDS011;67971;51.046;3.732;2023-03-04T07:16:45;24.30;;;3.40;;
23072;SDS011;67971;51.046;3.732;2023-03-04T07:19:11;20.77;;;3.60;;
23072;SDS011;67971;51.046;3.732;2023-03-04T07:21:37;33.60;;;5.07;;
23072;SDS011;67971;51.046;3.732;2023-03-04T07:24:02;21.07;;;4.27;;
23072;SDS011;67971;51.046;3.732;2023-03-04T07:26:28;14.53;;;3.23;;
23072;SDS011;67971;51.046;3.732;2023-03-04T07:28:54;15.90;;;3.33;;
23072;SDS011;67971;51.046;3.732;2023-03-04T07:31:27;23.10;;;3.73;;
23072;SDS011;67971;51.046;3.732;2023-03-04T07:33:55;26.37;;;4.47;;
23072;SDS011;67971;51.046;3.732;2023-03-04T07:36:22;13.17;;;3.47;;
23072;SDS011;67971;51.046;3.732;2023-03-04T07:38:48;17.17;;;3.33;;
23072;SDS011;67971;51.046;3.732;2023-03-04T07:41:15;8.40;;;3.03;;
23072;SDS011;67971;51.046;3.732;2023-03-04T07:43:42;14.60;;;2.83;;
23072;SDS011;67971;51.046;3.732;2023-03-04T07:46:08;12.20;;;2.63;;
23072;SDS011;67971;51.046;3.732;2023-03-04T07:48:34;11.40;;;3.10;;
23072;SDS011;67971;51.046;3.732;2023-03-04T07:51:23;18.37;;;3.13;;
23072;SDS011;67971;51.046;3.732;2023-03-04T07:53:49;15.90;;;4.30;;
23072;SDS011;67971;51.046;3.732;2023-03-04T07:56:17;16.73;;;4.63;;
23072;SDS011;67971;51.046;3.732;2023-03-04T07:58:45;22.77;;;3.83;;
23072;SDS011;67971;51.046;3.732;2023-03-04T08:01:12;19.10;;;4.20;;
23072;SDS011;67971;51.046;3.732;2023-03-04T08:03:57;12.47;;;3.00;;
23072;SDS011;67971;51.046;3.732;2023-03-04T08:06:23;20.23;;;3.43;;
23072;SDS011;67971;51.046;3.732;2023-03-04T08:08:54;10.23;;;3.13;;
23072;SDS011;67971;51.046;3.732;2023-03-04T08:11:22;17.70;;;3.07;;
23072;SDS011;67971;51.046;3.732;2023-03-04T08:13:48;16.47;;;2.77;;
23072;SDS011;67971;51.046;3.732;2023-03-04T08:16:15;21.10;;;3.43;;
23072;SDS011;67971;51.046;3.732;2023-03-04T08:18:43;17.93;;;2.80;;
23072;SDS011;67971;51.046;3.732;2023-03-04T08:21:12;9.93;;;2.77;;
23072;SDS011;67971;51.046;3.732;2023-03-04T08:23:39;19.20;;;3.57;;
23072;SDS011;67971;51.046;3.732;2023-03-04T08:26:10;10.93;;;4.10;;
23072;SDS011;67971;51.046;3.732;2023-03-04T08:28:37;16.73;;;4.60;;
23072;SDS011;67971;51.046;3.732;2023-03-04T08:31:03;24.13;;;6.90;;
23072;SDS011;67971;51.046;3.732;2023-03-04T08:33:30;20.97;;;5.07;;
23072;SDS011;67971;51.046;3.732;2023-03-04T08:35:57;17.47;;;4.20;;
23072;SDS011;67971;51.046;3.732;2023-03-04T08:38:23;18.07;;;4.47;;
23072;SDS011;67971;51.046;3.732;2023-03-04T08:40:55;20.00;;;4.77;;
23072;SDS011;67971;51.046;3.732;2023-03-04T08:43:24;14.27;;;3.30;;
23072;SDS011;67971;51.046;3.732;2023-03-04T08:45:51;18.60;;;4.30;;
23072;SDS011;67971;51.046;3.732;2023-03-04T08:48:17;15.03;;;3.03;;
23072;SDS011;67971;51.046;3.732;2023-03-04T08:50:44;12.33;;;2.97;;
23072;SDS011;67971;51.046;3.732;2023-03-04T08:53:10;14.80;;;3.53;;
23072;SDS011;67971;51.046;3.732;2023-03-04T08:55:37;17.00;;;3.43;;
23072;SDS011;67971;51.046;3.732;2023-03-04T08:58:03;15.77;;;3.47;;
23072;SDS011;67971;51.046;3.732;2023-03-04T09:00:29;8.77;;;2.43;;
23072;SDS011;67971;51.046;3.732;2023-03-04T09:02:55;14.03;;;3.90;;
23072;SDS011;67971;51.046;3.732;2023-03-04T09:05:20;11.47;;;3.33;;
23072;SDS011;67971;51.046;3.732;2023-03-04T09:07:46;14.47;;;3.40;;
23072;SDS011;67971;51.046;3.732;2023-03-04T09:10:12;9.10;;;2.63;;
23072;SDS011;67971;51.046;3.732;2023-03-04T09:12:38;13.97;;;3.13;;
23072;SDS011;67971;51.046;3.732;2023-03-04T09:15:04;13.53;;;2.73;;
23072;SDS011;67971;51.046;3.732;2023-03-04T09:17:30;20.50;;;3.43;;
23072;SDS011;67971;51.046;3.732;2023-03-04T09:19:56;15.60;;;3.47;;
23072;SDS011;67971;51.046;3.732;2023-03-04T09:22:22;14.90;;;3.37;;
23072;SDS011;67971;51.046;3.732;2023-03-04T09:24:48;13.77;;;2.97;;
23072;SDS011;67971;51.046;3.732;2023-03-04T09:27:13;19.37;;;3.30;;
23072;SDS011;67971;51.046;3.732;2023-03-04T09:29:39;15.27;;;2.97;;
23072;SDS011;67971;51.046;3.732;2023-03-04T09:32:06;15.57;;;3.30;;
23072;SDS011;67971;51.046;3.732;2023-03-04T09:34:32;16.07;;;3.67;;
23072;SDS011;67971;51.046;3.732;2023-03-04T09:36:57;15.37;;;3.43;;
23072;SDS011;67971;51.046;3.732;2023-03-04T09:39:23;20.13;;;3.03;;
23072;SDS011;67971;51.046;3.732;2023-03-04T09:41:49;12.27;;;3.90;;
23072;SDS011;67971;51.046;3.732;2023-03-04T09:44:22;17.20;;;5.30;;
23072;SDS011;67971;51.046;3.732;2023-03-04T09:46:48;23.80;;;4.00;;
23072;SDS011;67971;51.046;3.732;2023-03-04T09:49:15;13.97;;;3.57;;
23072;SDS011;67971;51.046;3.732;2023-03-04T09:51:45;15.33;;;4.10;;
23072;SDS011;67971;51.046;3.732;2023-03-04T10:00:03;12.83;;;3.20;;
23072;SDS011;67971;51.046;3.732;2023-03-04T10:05:30;10.63;;;2.93;;
23072;SDS011;67971;51.046;3.732;2023-03-04T10:07:59;20.13;;;4.13;;
23072;SDS011;67971;51.046;3.732;2023-03-04T10:10:40;13.20;;;3.60;;
23072;SDS011;67971;51.046;3.732;2023-03-04T10:13:16;19.57;;;5.17;;
23072;SDS011;67971;51.046;3.732;2023-03-04T10:15:47;16.27;;;3.80;;
23072;SDS011;67971;51.046;3.732;2023-03-04T10:20:59;17.67;;;4.57;;
23072;SDS011;67971;51.046;3.732;2023-03-04T10:23:30;11.37;;;4.60;;
23072;SDS011;67971;51.046;3.732;2023-03-04T10:25:58;24.33;;;4.57;;
23072;SDS011;67971;51.046;3.732;2023-03-04T10:28:34;16.77;;;4.67;;
23072;SDS011;67971;51.046;3.732;2023-03-04T10:31:01;12.93;;;3.97;;
23072;SDS011;67971;51.046;3.732;2023-03-04T10:33:44;18.97;;;5.87;;
23072;SDS011;67971;51.046;3.732;2023-03-04T10:38:48;18.60;;;3.50;;
23072;SDS011;67971;51.046;3.732;2023-03-04T10:41:21;12.27;;;3.00;;
23072;SDS011;67971;51.046;3.732;2023-03-04T10:44:03;15.90;;;4.07;;
23072;SDS011;67971;51.046;3.732;2023-03-04T10:46:36;21.03;;;3.90;;
23072;SDS011;67971;51.046;3.732;2023-03-04T10:49:17;10.73;;;3.37;;
23072;SDS011;67971;51.046;3.732;2023-03-04T10:51:45;14.57;;;2.97;;
23072;SDS011;67971;51.046;3.732;2023-03-04T10:54:21;18.93;;;4.60;;
23072;SDS011;67971;51.046;3.732;2023-03-04T10:57:32;17.20;;;3.67;;
23072;SDS011;67971;51.046;3.732;2023-03-04T11:02:41;14.17;;;4.43;;
23072;SDS011;67971;51.046;3.732;2023-03-04T11:10:20;15.27;;;3.23;;
23072;SDS011;67971;51.046;3.732;2023-03-04T11:13:04;15.10;;;3.60;;
23072;SDS011;67971;51.046;3.732;2023-03-04T11:21:36;7.22;;;2.08;;
23072;SDS011;67971;51.046;3.732;2023-03-04T11:34:33;8.18;;;1.95;;
23072;SDS011;67971;51.046;3.732;2023-03-04T11:39:50;6.63;;;2.00;;
23072;SDS011;67971;51.046;3.732;2023-03-04T11:42:29;5.07;;;1.90;;
23072;SDS011;67971;51.046;3.732;2023-03-04T11:44:57;3.80;;;1.45;;
23072;SDS011;67971;51.046;3.732;2023-03-04T11:47:35;6.47;;;1.60;;
23072;SDS011;67971;51.046;3.732;2023-03-04T11:50:46;4.97;;;1.80;;
23072;SDS011;67971;51.046;3.732;2023-03-04T11:53:32;5.77;;;1.70;;
23072;SDS011;67971;51.046;3.732;2023-03-04T11:56:26;8.67;;;1.80;;
23072;SDS011;67971;51.046;3.732;2023-03-04T11:59:18;4.80;;;2.57;;
23072;SDS011;67971;51.046;3.732;2023-03-04T12:02:15;5.23;;;1.60;;
23072;SDS011;67971;51.046;3.732;2023-03-04T12:10:35;6.70;;;1.50;;
23072;SDS011;67971;51.046;3.732;2023-03-04T12:16:27;7.63;;;1.70;;
23072;SDS011;67971;51.046;3.732;2023-03-04T12:22:07;5.53;;;2.00;;
23072;SDS011;67971;51.046;3.732;2023-03-04T12:40:52;3.03;;;1.17;;
23072;SDS011;67971;51.046;3.732;2023-03-04T12:43:26;7.20;;;1.83;;
23072;SDS011;67971;51.046;3.732;2023-03-04T12:46:06;3.93;;;1.33;;
23072;SDS011;67971;51.046;3.732;2023-03-04T12:49:20;6.80;;;1.70;;
23072;SDS011;67971;51.046;3.732;2023-03-04T12:56:42;7.20;;;2.37;;
23072;SDS011;67971;51.046;3.732;2023-03-04T12:59:17;1.77;;;1.30;;
23072;SDS011;67971;51.046;3.732;2023-03-04T13:10:19;2.80;;;1.23;;
23072;SDS011;67971;51.046;3.732;2023-03-04T13:12:54;3.80;;;1.00;;
23072;SDS011;67971;51.046;3.732;2023-03-04T13:18:01;2.60;;;1.10;;
23072;SDS011;67971;51.046;3.732;2023-03-04T13:20:39;4.47;;;1.50;;
23072;SDS011;67971;51.046;3.732;2023-03-04T13:25:47;3.73;;;1.30;;
23072;SDS011;67971;51.046;3.732;2023-03-04T13:36:02;8.10;;;1.73;;
23072;SDS011;67971;51.046;3.732;2023-03-04T13:43:52;3.33;;;1.07;;
23072;SDS011;67971;51.046;3.732;2023-03-04T13:59:31;4.33;;;1.87;;
23072;SDS011;67971;51.046;3.732;2023-03-04T14:02:12;3.93;;;1.70;;
23072;SDS011;67971;51.046;3.732;2023-03-04T14:05:05;5.37;;;2.10;;
23072;SDS011;67971;51.046;3.732;2023-03-04T14:07:34;6.93;;;1.80;;
23072;SDS011;67971;51.046;3.732;2023-03-04T14:17:38;10.70;;;1.43;;
23072;SDS011;67971;51.046;3.732;2023-03-04T14:20:25;6.13;;;1.70;;
23072;SDS011;67971;51.046;3.732;2023-03-04T14:22:56;5.43;;;1.60;;
23072;SDS011;67971;51.046;3.732;2023-03-04T14:25:24;11.17;;;1.60;;
23072;SDS011;67971;51.046;3.732;2023-03-04T14:28:27;9.37;;;2.10;;
23072;SDS011;67971;51.046;3.732;2023-03-04T14:30:53;4.67;;;1.43;;
23072;SDS011;67971;51.046;3.732;2023-03-04T14:33:22;11.50;;;1.83;;
23072;SDS011;67971;51.046;3.732;2023-03-04T14:35:50;6.00;;;1.87;;
23072;SDS011;67971;51.046;3.732;2023-03-04T14:38:23;6.07;;;1.93;;
23072;SDS011;67971;51.046;3.732;2023-03-04T14:43:23;8.50;;;2.07;;
23072;SDS011;67971;51.046;3.732;2023-03-04T14:45:51;19.03;;;3.03;;
23072;SDS011;67971;51.046;3.732;2023-03-04T14:48:30;5.73;;;2.20;;
23072;SDS011;67971;51.046;3.732;2023-03-04T14:50:57;10.53;;;2.30;;
23072;SDS011;67971;51.046;3.732;2023-03-04T14:53:25;9.50;;;2.23;;
23072;SDS011;67971;51.046;3.732;2023-03-04T14:58:32;7.97;;;2.20;;
23072;SDS011;67971;51.046;3.732;2023-03-04T15:03:31;5.33;;;1.40;;
23072;SDS011;67971;51.046;3.732;2023-03-04T15:08:38;4.60;;;1.53;;
23072;SDS011;67971;51.046;3.732;2023-03-04T15:11:05;2.60;;;0.80;;
23072;SDS011;67971;51.046;3.732;2023-03-04T15:13:38;6.70;;;1.00;;
23072;SDS011;67971;51.046;3.732;2023-03-04T15:16:14;1.83;;;0.70;;
23072;SDS011;67971;51.046;3.732;2023-03-04T15:19:02;1.90;;;1.13;;
23072;SDS011;67971;51.046;3.732;2023-03-04T15:24:01;3.50;;;1.40;;
23072;SDS011;67971;51.046;3.732;2023-03-04T15:26:28;1.70;;;1.10;;
23072;SDS011;67971;51.046;3.732;2023-03-04T15:28:56;2.07;;;1.17;;
23072;SDS011;67971;51.046;3.732;2023-03-04T15:31:23;2.00;;;0.97;;
23072;SDS011;67971;51.046;3.732;2023-03-04T15:33:52;8.20;;;1.93;;
23072;SDS011;67971;51.046;3.732;2023-03-04T15:36:18;2.13;;;1.20;;
23072;SDS011;67971;51.046;3.732;2023-03-04T15:38:47;2.57;;;1.80;;
23072;SDS011;67971;51.046;3.732;2023-03-04T15:41:22;5.97;;;2.63;;
23072;SDS011;67971;51.046;3.732;2023-03-04T15:43:50;10.10;;;2.07;;
23072;SDS011;67971;51.046;3.732;2023-03-04T15:46:16;3.73;;;2.20;;
23072;SDS011;67971;51.046;3.732;2023-03-04T15:48:42;6.60;;;1.90;;
23072;SDS011;67971;51.046;3.732;2023-03-04T15:51:13;8.37;;;2.30;;
23072;SDS011;67971;51.046;3.732;2023-03-04T15:53:45;4.40;;;2.20;;
23072;SDS011;67971;51.046;3.732;2023-03-04T15:56:14;11.70;;;2.03;;
23072;SDS011;67971;51.046;3.732;2023-03-04T15:58:42;5.50;;;1.77;;
23072;SDS011;67971;51.046;3.732;2023-03-04T16:01:13;7.20;;;1.90;;
23072;SDS011;67971;51.046;3.732;2023-03-04T16:03:40;8.10;;;2.37;;
23072;SDS011;67971;51.046;3.732;2023-03-04T16:06:07;5.83;;;1.33;;
23072;SDS011;67971;51.046;3.732;2023-03-04T16:08:37;2.70;;;1.30;;
23072;SDS011;67971;51.046;3.732;2023-03-04T16:11:04;5.90;;;1.70;;
23072;SDS011;67971;51.046;3.732;2023-03-04T16:13:30;8.93;;;1.97;;
23072;SDS011;67971;51.046;3.732;2023-03-04T16:15:56;8.17;;;2.07;;
23072;SDS011;67971;51.046;3.732;2023-03-04T16:18:22;8.77;;;1.63;;
23072;SDS011;67971;51.046;3.732;2023-03-04T16:20:48;3.00;;;1.40;;
23072;SDS011;67971;51.046;3.732;2023-03-04T16:23:20;5.03;;;2.17;;
23072;SDS011;67971;51.046;3.732;2023-03-04T16:25:48;8.30;;;2.03;;
23072;SDS011;67971;51.046;3.732;2023-03-04T16:28:16;4.97;;;1.50;;
23072;SDS011;67971;51.046;3.732;2023-03-04T16:30:42;4.23;;;2.07;;
23072;SDS011;67971;51.046;3.732;2023-03-04T16:33:08;6.20;;;2.13;;
23072;SDS011;67971;51.046;3.732;2023-03-04T16:35:35;5.37;;;1.73;;
23072;SDS011;67971;51.046;3.732;2023-03-04T16:38:03;3.50;;;1.37;;
23072;SDS011;67971;51.046;3.732;2023-03-04T16:40:31;5.13;;;1.50;;
23072;SDS011;67971;51.046;3.732;2023-03-04T16:42:57;2.83;;;1.50;;
23072;SDS011;67971;51.046;3.732;2023-03-04T16:45:24;9.30;;;2.00;;
23072;SDS011;67971;51.046;3.732;2023-03-04T16:47:51;3.40;;;1.53;;
23072;SDS011;67971;51.046;3.732;2023-03-04T16:50:18;6.93;;;1.47;;
23072;SDS011;67971;51.046;3.732;2023-03-04T16:52:49;7.97;;;1.80;;
23072;SDS011;67971;51.046;3.732;2023-03-04T16:55:27;7.30;;;2.50;;
23072;SDS011;67971;51.046;3.732;2023-03-04T16:57:55;6.87;;;2.50;;
23072;SDS011;67971;51.046;3.732;2023-03-04T17:00:24;6.87;;;2.73;;
23072;SDS011;67971;51.046;3.732;2023-03-04T17:02:59;4.73;;;1.40;;
23072;SDS011;67971;51.046;3.732;2023-03-04T17:05:26;5.77;;;1.60;;
23072;SDS011;67971;51.046;3.732;2023-03-04T17:07:54;7.57;;;1.70;;
23072;SDS011;67971;51.046;3.732;2023-03-04T17:10:20;6.40;;;1.83;;